Main page
METAR-TAF:

METAR-TAF

Airports :

Salak Airport

Maroua, Cameroon

latitude: 10-27N, longitude: 014-15E, elevation: 423 m

Current weather observation

The report was made 10 hours and 33 minutes ago, at 09:00 UTC
Wind 8 kt from the Northeast, varying between North and East/Northeast
Temperature 35°C
Humidity 11%
Pressure 1012 hPa
Visibility 10 km or more
no clouds below 1500 m and no cumulonimbus

METAR: FKKL 280900Z 04008KT 010V070 CAVOK 35/M00 Q1012

Time: 20:33 (19:33 UTC)

Forecast

The report was made 14 hours and 33 minutes ago, at 05:00 UTC
Forecast valid from 28 at 06 UTC to 28 at 18 UTC
Wind 7 kt from the Northeast
Visibility 10 km or more
no clouds below 1500 m and no cumulonimbus

TAF: FKKL 280500Z 2806/2818 05007KT CAVOK

Weather observations and forecasts of more than 4000 airports (METAR and TAF reports).

The available stations are represented by yellow and red dots on the map.

Hover mouse over dot to see the name of the station.

Then click to see weather observations and forecasts.

To change the map : click on the green buttons with a black cross to zoom in, on the green button with a dash to zoom out, or on the green arrows for adjacent maps.


METAR-TAF: